Time;durP1;ratioP1;P1;durP2;ratioP2;P2;SDS_P1;SDS_P2;PMS_P1;PMS_P2;Temp;Humidity;BMP_temperature;BMP_pressure;BME280_temperature;BME280_humidity;BME280_pressure;Samples;Min_cycle;Max_cycle;Signal;HPM_P1;HPM_P2
2023/07/19 00:02:22;;;;;;;8.38;2.65;;;14.40;99.90;;;;;;5047063;28;20052;-56
2023/07/19 00:04:50;;;;;;;9.13;4.00;;;14.40;99.90;;;;;;5048612;28;20052;-55
2023/07/19 00:07:17;;;;;;;11.90;3.65;;;14.40;99.90;;;;;;5042937;28;20050;-56
2023/07/19 00:09:45;;;;;;;9.63;3.88;;;14.40;99.90;;;;;;5044578;28;20048;-59
2023/07/19 00:12:12;;;;;;;8.95;3.80;;;14.40;99.90;;;;;;5042317;28;20044;-56
2023/07/19 00:14:40;;;;;;;10.93;4.28;;;14.40;99.90;;;;;;5043531;28;20045;-56
2023/07/19 00:17:08;;;;;;;9.20;4.53;;;14.40;99.90;;;;;;5043355;28;20511;-55
2023/07/19 00:19:36;;;;;;;8.35;3.95;;;14.40;99.90;;;;;;5048063;28;20041;-56
2023/07/19 00:22:05;;;;;;;9.68;4.38;;;14.40;99.90;;;;;;5047383;28;20064;-55
2023/07/19 00:24:32;;;;;;;8.20;4.53;;;14.40;99.90;;;;;;5052628;28;20048;-56
2023/07/19 00:27:00;;;;;;;12.48;4.35;;;14.40;99.90;;;;;;5046939;28;20045;-55
2023/07/19 00:29:28;;;;;;;10.45;3.90;;;14.50;99.90;;;;;;5046312;28;20049;-56
2023/07/19 00:31:56;;;;;;;7.25;3.85;;;14.40;99.90;;;;;;5052604;28;20388;-56
2023/07/19 00:34:23;;;;;;;10.13;4.78;;;14.40;99.90;;;;;;5047340;28;20385;-55
2023/07/19 00:36:51;;;;;;;12.13;4.53;;;14.40;99.90;;;;;;5044944;28;20045;-55
2023/07/19 00:39:19;;;;;;;9.70;4.20;;;14.30;99.90;;;;;;5047322;28;20041;-56
2023/07/19 00:41:47;;;;;;;9.05;4.22;;;14.30;99.90;;;;;;5048183;28;20045;-56
2023/07/19 00:44:15;;;;;;;15.82;4.38;;;14.30;99.90;;;;;;5052306;28;20033;-60
2023/07/19 00:46:44;;;;;;;7.55;3.83;;;14.30;99.90;;;;;;5051725;28;20068;-57
2023/07/19 00:49:11;;;;;;;10.60;3.75;;;14.30;99.90;;;;;;5044138;28;20047;-58
2023/07/19 00:51:40;;;;;;;13.70;4.03;;;14.40;99.90;;;;;;5048326;28;20040;-58
2023/07/19 00:54:09;;;;;;;14.50;3.80;;;14.30;99.90;;;;;;5046504;28;20041;-59
2023/07/19 00:56:42;;;;;;;10.80;3.45;;;14.30;99.90;;;;;;5051707;28;20048;-60
2023/07/19 00:59:12;;;;;;;2.92;1.60;;;14.30;99.90;;;;;;5047630;28;20076;-59
2023/07/19 01:01:44;;;;;;;3.70;1.73;;;14.30;99.90;;;;;;5046144;28;20056;-60
2023/07/19 01:04:12;;;;;;;6.70;2.35;;;14.30;99.90;;;;;;5042977;28;20044;-59
2023/07/19 01:06:42;;;;;;;6.95;2.35;;;14.30;99.90;;;;;;5037505;28;20056;-60
2023/07/19 01:09:11;;;;;;;12.82;2.80;;;14.30;99.90;;;;;;5045910;28;20111;-56
2023/07/19 01:11:41;;;;;;;6.28;2.83;;;14.30;99.90;;;;;;5047355;28;20045;-56
2023/07/19 01:14:08;;;;;;;10.57;2.10;;;14.30;99.90;;;;;;5045333;28;20061;-56
2023/07/19 01:16:36;;;;;;;2.90;1.77;;;14.30;99.90;;;;;;5048459;28;20661;-56
2023/07/19 01:19:05;;;;;;;3.78;1.73;;;14.30;99.90;;;;;;5047004;28;20515;-55
2023/07/19 01:21:32;;;;;;;6.60;2.03;;;14.30;99.90;;;;;;5042224;28;20057;-55
2023/07/19 01:24:00;;;;;;;0.00;0.00;;;14.40;99.90;;;;;;5045010;28;20044;-56
2023/07/19 01:26:28;;;;;;;0.00;0.00;;;14.40;99.90;;;;;;5043491;28;20045;-55
2023/07/19 01:28:57;;;;;;;0.00;0.00;;;14.40;99.90;;;;;;5050003;28;20054;-55
2023/07/19 01:31:25;;;;;;;2.97;1.60;;;14.40;99.90;;;;;;5043345;28;20057;-55
2023/07/19 01:33:54;;;;;;;6.35;2.13;;;14.40;99.90;;;;;;5047688;28;20038;-56
2023/07/19 01:36:22;;;;;;;3.30;2.85;;;14.40;99.90;;;;;;5048742;28;20384;-55
2023/07/19 01:38:50;;;;;;;0.40;0.40;;;14.40;99.90;;;;;;5048473;28;20060;-55
2023/07/19 01:41:18;;;;;;;25.88;10.07;;;14.40;99.90;;;;;;5050070;28;20037;-55
2023/07/19 01:43:46;;;;;;;37.38;10.93;;;14.40;99.90;;;;;;5044670;28;20057;-61
2023/07/19 01:46:13;;;;;;;36.08;11.55;;;14.40;99.90;;;;;;5048636;28;20053;-59
2023/07/19 01:48:41;;;;;;;9.82;3.20;;;14.40;99.90;;;;;;5047006;28;20036;-58
2023/07/19 01:51:09;;;;;;;6.60;3.28;;;14.40;99.90;;;;;;5049926;28;20052;-58
2023/07/19 01:53:36;;;;;;;12.52;4.22;;;14.40;99.90;;;;;;5045686;28;20100;-58
2023/07/19 01:56:04;;;;;;;7.82;4.43;;;14.40;99.90;;;;;;5044884;28;20591;-57
2023/07/19 01:58:31;;;;;;;0.00;0.00;;;14.40;99.90;;;;;;5030044;28;20033;-60
2023/07/19 02:00:59;;;;;;;19.02;6.30;;;14.40;99.90;;;;;;5042475;28;20048;-59
2023/07/19 02:03:27;;;;;;;45.67;15.23;;;14.40;99.90;;;;;;5043024;28;20061;-58
2023/07/19 02:05:59;;;;;;;36.33;15.00;;;14.40;99.90;;;;;;5051715;28;20052;-57
2023/07/19 02:08:27;;;;;;;44.40;14.98;;;14.40;99.90;;;;;;5044267;28;20099;-57
2023/07/19 02:10:54;;;;;;;43.65;15.40;;;14.40;99.90;;;;;;5050938;28;20037;-58
2023/07/19 02:13:22;;;;;;;55.92;14.20;;;14.40;99.90;;;;;;5046049;28;20048;-58
2023/07/19 02:15:50;;;;;;;46.85;12.88;;;14.40;99.90;;;;;;5045981;28;20056;-60
2023/07/19 02:18:17;;;;;;;46.45;13.20;;;14.30;99.90;;;;;;5045641;28;20045;-58
2023/07/19 02:20:47;;;;;;;47.25;14.57;;;14.30;99.90;;;;;;5042896;28;20052;-57
2023/07/19 02:23:18;;;;;;;51.05;14.82;;;14.30;99.90;;;;;;5052311;28;20546;-56
2023/07/19 02:25:48;;;;;;;44.97;14.23;;;14.30;99.90;;;;;;5051223;28;20041;-55
2023/07/19 02:28:17;;;;;;;42.30;14.63;;;14.30;99.90;;;;;;5047325;28;20041;-55
2023/07/19 02:30:45;;;;;;;38.58;13.90;;;14.30;99.90;;;;;;5049680;28;20052;-55
2023/07/19 02:33:15;;;;;;;41.38;14.55;;;14.30;99.90;;;;;;5050302;28;20499;-55
2023/07/19 02:35:43;;;;;;;35.45;13.70;;;14.30;99.90;;;;;;5050212;28;20450;-56
2023/07/19 02:38:10;;;;;;;42.65;13.45;;;14.30;99.90;;;;;;5051388;28;20511;-56
2023/07/19 02:40:39;;;;;;;36.58;12.85;;;14.40;99.90;;;;;;5048802;28;20045;-55
2023/07/19 02:43:06;;;;;;;31.10;13.05;;;14.40;99.90;;;;;;5048539;28;20607;-54
2023/07/19 02:45:37;;;;;;;39.42;13.65;;;14.30;99.90;;;;;;5032257;28;20041;-56
2023/07/19 02:48:05;;;;;;;28.52;12.23;;;14.30;99.90;;;;;;5051838;28;20041;-55
2023/07/19 02:50:33;;;;;;;32.38;11.85;;;14.30;99.90;;;;;;5049756;28;20053;-55
2023/07/19 02:53:00;;;;;;;27.70;11.23;;;14.30;99.90;;;;;;5049708;28;20448;-57
2023/07/19 02:55:28;;;;;;;23.55;10.73;;;14.30;99.90;;;;;;5047936;28;20048;-55
2023/07/19 02:57:56;;;;;;;28.77;12.02;;;14.30;99.90;;;;;;5047567;28;20049;-55
2023/07/19 03:00:24;;;;;;;23.05;9.57;;;14.30;99.90;;;;;;5049584;28;20052;-56
2023/07/19 03:02:53;;;;;;;19.55;8.02;;;14.30;99.90;;;;;;5047207;28;20044;-58
2023/07/19 03:05:22;;;;;;;19.63;8.48;;;14.30;99.90;;;;;;5046786;28;20044;-57
2023/07/19 03:07:51;;;;;;;13.50;7.20;;;14.30;99.90;;;;;;5040365;28;20080;-56
2023/07/19 03:10:18;;;;;;;13.68;7.10;;;14.30;99.90;;;;;;5042696;28;20048;-55
2023/07/19 03:12:46;;;;;;;16.20;7.68;;;14.30;99.90;;;;;;5047796;28;20381;-56
2023/07/19 03:15:14;;;;;;;18.70;8.27;;;14.30;99.90;;;;;;5028529;28;20053;-54
2023/07/19 03:17:42;;;;;;;16.77;8.00;;;14.30;99.90;;;;;;5044362;28;20048;-55
2023/07/19 03:20:10;;;;;;;15.88;8.05;;;14.30;99.90;;;;;;5048169;28;20044;-56
2023/07/19 03:22:38;;;;;;;12.93;8.00;;;14.40;99.90;;;;;;5045294;28;20049;-55
2023/07/19 03:25:06;;;;;;;14.68;8.13;;;14.40;99.90;;;;;;5045304;28;20488;-55
2023/07/19 03:27:34;;;;;;;15.70;8.13;;;14.40;99.90;;;;;;5045793;28;20052;-55
2023/07/19 03:30:05;;;;;;;15.52;7.53;;;14.30;99.90;;;;;;5046300;28;20029;-55
2023/07/19 03:32:32;;;;;;;14.45;8.05;;;14.40;99.90;;;;;;5047953;28;20052;-55
2023/07/19 03:35:01;;;;;;;14.82;7.95;;;14.40;99.90;;;;;;5025844;28;20048;-55
2023/07/19 03:37:29;;;;;;;13.82;6.07;;;14.40;99.90;;;;;;5045767;28;20044;-55
2023/07/19 03:39:57;;;;;;;11.02;6.43;;;14.40;99.90;;;;;;5049224;28;20377;-55
2023/07/19 03:42:25;;;;;;;11.20;6.35;;;14.40;99.90;;;;;;5045134;28;20045;-55
2023/07/19 03:44:52;;;;;;;9.43;5.80;;;14.40;99.90;;;;;;5048131;28;20068;-59
2023/07/19 03:47:20;;;;;;;11.93;6.55;;;14.40;99.90;;;;;;5043979;28;20036;-55
2023/07/19 03:49:48;;;;;;;12.80;6.63;;;14.40;99.90;;;;;;5046442;28;20081;-55
2023/07/19 03:52:16;;;;;;;10.90;5.78;;;14.40;99.90;;;;;;5043163;28;20041;-55
2023/07/19 03:54:44;;;;;;;17.60;5.75;;;14.40;99.90;;;;;;5044263;28;20045;-55
2023/07/19 03:57:12;;;;;;;12.82;5.65;;;14.40;99.90;;;;;;5041732;28;20049;-56
2023/07/19 03:59:40;;;;;;;13.52;5.40;;;14.40;99.90;;;;;;5029022;28;20603;-55
2023/07/19 04:02:08;;;;;;;16.98;6.38;;;14.40;99.90;;;;;;5044478;28;20056;-56
2023/07/19 04:04:36;;;;;;;8.85;5.00;;;14.40;99.90;;;;;;5044822;28;20045;-55
2023/07/19 04:07:04;;;;;;;14.98;5.38;;;14.40;99.90;;;;;;5048011;28;20041;-56
2023/07/19 04:09:35;;;;;;;9.07;4.63;;;14.40;99.90;;;;;;5046323;28;20629;-55
2023/07/19 04:12:02;;;;;;;12.02;4.95;;;14.40;99.90;;;;;;5048143;28;20042;-55
2023/07/19 04:14:30;;;;;;;16.25;5.15;;;14.40;99.90;;;;;;5049432;28;20044;-55
2023/07/19 04:16:58;;;;;;;10.50;5.20;;;14.30;99.90;;;;;;5039237;28;20068;-55
2023/07/19 04:19:26;;;;;;;10.10;4.97;;;14.40;99.90;;;;;;5047303;28;20056;-55
2023/07/19 04:21:54;;;;;;;9.75;4.65;;;14.40;99.90;;;;;;5053788;28;20041;-55
2023/07/19 04:24:23;;;;;;;10.07;4.57;;;15.00;99.90;;;;;;5049045;28;20052;-56
2023/07/19 04:26:51;;;;;;;9.75;4.85;;;14.40;99.90;;;;;;5053387;28;20049;-55
2023/07/19 04:29:21;;;;;;;12.60;5.10;;;14.40;99.90;;;;;;5051632;28;20056;-57
2023/07/19 04:31:49;;;;;;;7.18;4.82;;;14.40;99.90;;;;;;5053026;28;20484;-58
2023/07/19 04:34:17;;;;;;;14.32;5.18;;;14.40;99.90;;;;;;5053253;28;20412;-56
2023/07/19 04:36:45;;;;;;;9.20;5.45;;;14.40;99.90;;;;;;5052741;28;20503;-58
2023/07/19 04:39:12;;;;;;;11.82;5.18;;;14.40;99.90;;;;;;5052362;28;20080;-59
2023/07/19 04:41:42;;;;;;;10.15;5.55;;;14.40;99.90;;;;;;5053169;28;20516;-57
2023/07/19 04:44:13;;;;;;;13.07;5.30;;;14.40;99.90;;;;;;5049799;28;20112;-58
2023/07/19 04:46:41;;;;;;;11.65;5.25;;;14.40;99.90;;;;;;5052770;28;20041;-58
2023/07/19 04:49:09;;;;;;;13.85;5.38;;;14.40;99.90;;;;;;5025167;28;20049;-57
2023/07/19 04:51:38;;;;;;;13.40;4.88;;;14.50;99.90;;;;;;5046067;28;20041;-58
2023/07/19 04:54:06;;;;;;;11.50;4.28;;;14.50;99.90;;;;;;5045979;28;20041;-56
2023/07/19 04:56:34;;;;;;;9.77;3.85;;;14.50;99.90;;;;;;5026423;28;20049;-58
2023/07/19 04:59:02;;;;;;;11.57;3.85;;;14.50;99.90;;;;;;5047521;28;20068;-58
2023/07/19 05:01:30;;;;;;;9.15;4.00;;;14.50;99.90;;;;;;5039916;28;20041;-55
2023/07/19 05:03:58;;;;;;;12.10;3.97;;;14.50;99.90;;;;;;5024247;28;20049;-56
2023/07/19 05:06:25;;;;;;;7.72;3.63;;;14.60;99.90;;;;;;5034091;28;20116;-55
2023/07/19 05:08:53;;;;;;;5.72;3.88;;;14.50;99.90;;;;;;5032815;28;20041;-55
2023/07/19 05:11:25;;;;;;;7.80;3.88;;;14.60;99.90;;;;;;5050867;28;20041;-56
2023/07/19 05:13:53;;;;;;;11.25;4.35;;;14.60;99.90;;;;;;5047746;28;20041;-55
2023/07/19 05:16:21;;;;;;;10.10;4.70;;;14.60;99.90;;;;;;5041966;28;20049;-58
2023/07/19 05:18:48;;;;;;;7.35;4.93;;;14.60;99.90;;;;;;5044940;28;20548;-58
2023/07/19 05:21:17;;;;;;;10.48;5.55;;;14.60;99.90;;;;;;5045051;28;20049;-58
2023/07/19 05:23:45;;;;;;;8.63;5.57;;;14.50;99.90;;;;;;5048275;28;20357;-56
2023/07/19 05:26:13;;;;;;;10.88;6.18;;;14.50;99.90;;;;;;5045084;28;20052;-58
2023/07/19 05:28:41;;;;;;;11.57;6.47;;;14.50;99.90;;;;;;5044727;28;20045;-56
2023/07/19 05:31:08;;;;;;;9.65;5.88;;;14.40;99.90;;;;;;5041819;28;20052;-58
2023/07/19 05:33:36;;;;;;;14.02;6.97;;;14.40;99.90;;;;;;5044282;28;20049;-58
2023/07/19 05:36:04;;;;;;;12.13;7.18;;;14.50;99.90;;;;;;5039872;28;20682;-56
2023/07/19 05:38:32;;;;;;;10.75;7.70;;;14.50;99.90;;;;;;5051020;28;20045;-56
2023/07/19 05:41:03;;;;;;;14.20;9.07;;;14.50;99.90;;;;;;5046007;28;20052;-57
2023/07/19 05:43:32;;;;;;;15.95;10.00;;;14.50;99.90;;;;;;5051996;28;20045;-55
2023/07/19 05:46:07;;;;;;;19.73;10.50;;;14.50;99.90;;;;;;5040647;28;20053;-56
2023/07/19 05:48:36;;;;;;;17.80;10.30;;;14.50;99.90;;;;;;5038401;28;20080;-59
2023/07/19 05:51:06;;;;;;;20.42;11.38;;;14.50;99.90;;;;;;5041087;28;20459;-58
2023/07/19 05:53:34;;;;;;;21.13;10.80;;;14.60;99.90;;;;;;5045967;28;20045;-58
2023/07/19 05:56:02;;;;;;;19.02;10.73;;;14.50;99.90;;;;;;5041718;28;20041;-56
2023/07/19 05:58:30;;;;;;;20.77;11.35;;;14.50;99.90;;;;;;5047256;28;20045;-59
2023/07/19 06:00:58;;;;;;;17.80;10.85;;;14.50;99.90;;;;;;5041990;28;20484;-56
2023/07/19 06:03:26;;;;;;;18.00;10.93;;;14.60;99.90;;;;;;5043164;28;20045;-57
2023/07/19 06:05:55;;;;;;;17.48;10.60;;;14.50;99.90;;;;;;5045204;28;20048;-56
2023/07/19 06:08:22;;;;;;;16.63;10.23;;;14.60;99.90;;;;;;4994472;28;1522724;-56
2023/07/19 06:10:52;;;;;;;19.35;10.20;;;14.60;99.90;;;;;;5047905;28;20049;-56
2023/07/19 06:13:20;;;;;;;18.40;10.00;;;14.60;99.90;;;;;;5052727;28;20048;-55
2023/07/19 06:15:48;;;;;;;16.80;10.25;;;14.60;99.90;;;;;;5050832;28;20053;-55
2023/07/19 06:18:16;;;;;;;18.88;9.70;;;14.60;99.90;;;;;;5047320;28;20051;-56
2023/07/19 06:20:44;;;;;;;21.88;10.52;;;14.60;99.90;;;;;;5050231;28;20045;-55
2023/07/19 06:23:13;;;;;;;17.48;9.40;;;14.60;99.90;;;;;;5048958;28;20100;-59
2023/07/19 06:25:41;;;;;;;19.65;10.70;;;14.60;99.90;;;;;;5044125;28;20052;-55
2023/07/19 06:28:09;;;;;;;17.73;9.52;;;14.60;99.90;;;;;;5049931;28;20049;-55
2023/07/19 06:30:36;;;;;;;15.45;8.90;;;14.60;99.90;;;;;;5043344;28;20041;-55
2023/07/19 06:33:04;;;;;;;17.92;9.60;;;14.60;99.90;;;;;;5055642;28;20067;-55
2023/07/19 06:35:33;;;;;;;16.67;9.65;;;14.70;99.90;;;;;;5020127;28;20044;-54
2023/07/19 06:38:01;;;;;;;21.10;9.50;;;14.70;99.90;;;;;;5052112;28;20040;-55
2023/07/19 06:40:29;;;;;;;17.83;9.40;;;14.70;99.90;;;;;;5046701;28;20048;-56
2023/07/19 06:42:57;;;;;;;18.58;9.00;;;14.80;99.90;;;;;;5042200;28;20045;-55
2023/07/19 06:45:25;;;;;;;15.20;8.95;;;14.80;99.90;;;;;;5045370;28;20045;-56
2023/07/19 06:47:53;;;;;;;12.07;8.50;;;14.90;99.90;;;;;;5043113;28;20049;-57
2023/07/19 06:50:21;;;;;;;10.65;7.50;;;14.90;99.90;;;;;;5042959;28;20053;-55
2023/07/19 06:52:49;;;;;;;14.35;8.05;;;14.90;99.90;;;;;;5040063;28;20078;-57
2023/07/19 06:55:17;;;;;;;13.80;7.50;;;14.90;99.90;;;;;;5047300;28;20048;-56
2023/07/19 06:57:44;;;;;;;14.88;7.72;;;15.00;99.90;;;;;;5052937;28;20051;-56
2023/07/19 07:00:12;;;;;;;12.27;6.72;;;15.00;99.90;;;;;;5048478;28;20052;-55
2023/07/19 07:02:40;;;;;;;10.00;5.75;;;15.10;99.90;;;;;;5043378;28;20048;-55
2023/07/19 07:05:10;;;;;;;11.02;6.35;;;15.10;99.90;;;;;;5042760;28;20048;-55
2023/07/19 07:07:42;;;;;;;8.88;5.95;;;15.20;99.90;;;;;;5052678;28;20568;-55
2023/07/19 07:10:09;;;;;;;8.48;5.72;;;15.20;99.90;;;;;;5049693;28;20052;-55
2023/07/19 07:12:37;;;;;;;7.70;4.88;;;15.20;99.90;;;;;;5048922;28;20056;-55
2023/07/19 07:15:06;;;;;;;8.20;4.63;;;15.20;99.90;;;;;;5050114;28;20064;-55
2023/07/19 07:17:33;;;;;;;7.65;4.30;;;15.20;99.90;;;;;;5047283;28;20450;-55
2023/07/19 07:20:01;;;;;;;5.40;4.15;;;15.20;99.90;;;;;;5047738;28;20383;-55
2023/07/19 07:22:28;;;;;;;7.07;4.53;;;15.20;99.90;;;;;;5049447;28;20526;-55
2023/07/19 07:24:56;;;;;;;9.93;4.88;;;15.20;99.90;;;;;;5048260;28;20049;-56
2023/07/19 07:27:24;;;;;;;6.22;5.00;;;15.20;99.90;;;;;;5048053;28;20047;-55
2023/07/19 07:29:51;;;;;;;6.40;4.63;;;15.20;99.90;;;;;;5043769;28;20049;-55
2023/07/19 07:32:19;;;;;;;8.68;5.32;;;15.20;99.90;;;;;;5045523;28;20626;-55
2023/07/19 07:34:47;;;;;;;7.82;6.13;;;15.10;99.90;;;;;;5046990;28;20056;-55
2023/07/19 07:37:15;;;;;;;7.70;4.32;;;15.10;99.90;;;;;;5053112;28;20045;-55
2023/07/19 07:39:42;;;;;;;5.13;3.80;;;15.10;99.90;;;;;;5047615;28;20049;-56
2023/07/19 07:42:10;;;;;;;6.13;4.25;;;15.10;99.90;;;;;;5049329;28;20431;-55
2023/07/19 07:44:37;;;;;;;4.57;3.63;;;15.10;99.90;;;;;;5048328;28;20044;-55
2023/07/19 07:47:05;;;;;;;5.32;3.92;;;15.10;99.90;;;;;;5046920;28;20049;-55
2023/07/19 07:49:33;;;;;;;5.03;3.58;;;15.20;99.90;;;;;;5045998;28;20045;-55
2023/07/19 07:52:01;;;;;;;3.42;3.10;;;15.30;99.90;;;;;;5047067;28;20042;-56
2023/07/19 07:54:29;;;;;;;3.58;2.45;;;15.40;99.90;;;;;;5048901;28;20045;-55
2023/07/19 07:56:57;;;;;;;3.58;2.50;;;15.50;99.90;;;;;;5048027;28;20420;-57
2023/07/19 07:59:24;;;;;;;3.47;2.35;;;15.60;99.90;;;;;;5049255;28;20041;-61
2023/07/19 08:01:52;;;;;;;6.72;2.88;;;15.70;99.90;;;;;;5046863;28;20048;-60
2023/07/19 08:04:20;;;;;;;3.80;2.08;;;15.80;99.90;;;;;;5039301;28;20412;-55
2023/07/19 08:06:47;;;;;;;5.10;2.80;;;15.90;99.90;;;;;;5047292;28;20049;-56
2023/07/19 08:09:15;;;;;;;4.78;3.25;;;16.10;99.90;;;;;;5045783;28;20396;-57
2023/07/19 08:11:42;;;;;;;4.05;3.33;;;16.10;99.90;;;;;;5044898;28;20045;-55
2023/07/19 08:14:10;;;;;;;2.78;2.28;;;16.10;99.90;;;;;;5044464;28;20053;-55
2023/07/19 08:16:38;;;;;;;2.67;2.08;;;16.10;99.90;;;;;;5047319;28;20049;-56
2023/07/19 08:19:05;;;;;;;4.93;2.20;;;16.20;99.90;;;;;;5046541;28;20056;-59
2023/07/19 08:21:33;;;;;;;2.25;1.50;;;16.20;99.90;;;;;;5044675;28;20524;-55
2023/07/19 08:24:04;;;;;;;1.98;1.70;;;16.50;99.90;;;;;;5048926;28;20044;-56
2023/07/19 08:26:31;;;;;;;3.83;1.30;;;16.60;99.90;;;;;;5041188;28;20045;-56
2023/07/19 08:28:59;;;;;;;2.55;1.40;;;16.70;99.90;;;;;;5047617;28;20053;-55
2023/07/19 08:31:27;;;;;;;1.05;1.00;;;16.80;99.90;;;;;;5048834;28;20048;-57
2023/07/19 08:33:55;;;;;;;1.85;1.45;;;16.90;99.90;;;;;;5046989;28;20037;-55
2023/07/19 08:36:22;;;;;;;1.38;1.20;;;16.90;99.90;;;;;;5045559;28;20037;-60
2023/07/19 08:38:50;;;;;;;2.05;1.17;;;16.90;99.90;;;;;;5049692;28;20519;-56
2023/07/19 08:41:24;;;;;;;2.20;1.00;;;17.00;99.90;;;;;;5048499;28;20519;-56
2023/07/19 08:43:54;;;;;;;5.03;1.33;;;17.00;99.90;;;;;;5042593;28;20404;-56
2023/07/19 08:46:22;;;;;;;4.90;0.90;;;17.10;99.90;;;;;;5046386;28;20626;-57
2023/07/19 08:48:50;;;;;;;2.35;0.60;;;17.00;99.90;;;;;;5044740;28;20783;-57
2023/07/19 08:51:19;;;;;;;1.98;0.47;;;16.90;99.90;;;;;;5046307;28;20044;-56
2023/07/19 08:53:47;;;;;;;1.30;0.93;;;16.80;99.90;;;;;;5045873;28;20049;-56
2023/07/19 08:56:15;;;;;;;0.73;0.32;;;16.80;99.90;;;;;;5048306;28;20061;-56
2023/07/19 08:58:43;;;;;;;0.50;0.50;;;16.90;99.90;;;;;;5048683;28;20037;-59
2023/07/19 09:01:14;;;;;;;0.40;0.40;;;17.00;99.90;;;;;;5051764;28;20044;-58
2023/07/19 09:03:42;;;;;;;1.48;0.40;;;17.20;99.90;;;;;;5042499;28;20052;-57
2023/07/19 09:06:10;;;;;;;2.50;0.40;;;17.30;99.90;;;;;;5049081;28;20411;-56
2023/07/19 09:08:39;;;;;;;0.40;0.40;;;17.50;99.90;;;;;;5041836;28;20060;-56
2023/07/19 09:11:08;;;;;;;0.20;0.20;;;17.90;99.90;;;;;;5043688;28;20052;-57
2023/07/19 09:13:38;;;;;;;0.20;0.20;;;17.90;99.90;;;;;;5050001;28;20375;-57
2023/07/19 09:16:06;;;;;;;1.58;0.35;;;18.00;99.90;;;;;;5053867;28;20053;-60
2023/07/19 09:18:36;;;;;;;1.77;0.40;;;18.10;99.90;;;;;;5055817;28;20041;-56
2023/07/19 09:21:05;;;;;;;5.38;0.40;;;18.10;99.90;;;;;;5052010;28;20476;-60
2023/07/19 09:23:37;;;;;;;0.20;0.20;;;18.20;99.90;;;;;;5047412;28;20116;-59
2023/07/19 09:26:05;;;;;;;2.53;0.30;;;18.30;99.90;;;;;;5050070;28;20056;-59
2023/07/19 09:28:34;;;;;;;0.80;0.30;;;18.40;99.90;;;;;;5053986;28;20048;-59
2023/07/19 09:31:04;;;;;;;0.65;0.45;;;18.40;99.90;;;;;;5049405;28;20049;-59
2023/07/19 09:33:35;;;;;;;0.25;0.20;;;18.30;99.90;;;;;;5050115;28;20048;-58
2023/07/19 09:36:03;;;;;;;1.95;0.43;;;18.20;99.90;;;;;;5051993;28;20522;-59
2023/07/19 09:38:31;;;;;;;1.60;0.60;;;18.00;99.90;;;;;;5050167;28;20033;-59
2023/07/19 09:40:59;;;;;;;0.40;0.30;;;17.90;99.90;;;;;;5051698;28;20049;-55
2023/07/19 09:43:27;;;;;;;0.43;0.32;;;17.80;99.90;;;;;;5051306;28;20508;-56
2023/07/19 09:45:55;;;;;;;3.30;0.30;;;17.70;99.90;;;;;;5051108;28;20574;-55
2023/07/19 09:48:23;;;;;;;2.25;0.30;;;17.70;99.90;;;;;;5048556;28;20411;-57
2023/07/19 09:50:53;;;;;;;1.42;0.25;;;17.80;99.90;;;;;;5051463;28;20499;-56
2023/07/19 09:53:23;;;;;;;1.55;0.47;;;17.90;99.90;;;;;;5049267;28;20045;-55
2023/07/19 09:55:54;;;;;;;0.82;0.40;;;18.00;99.90;;;;;;5050689;28;20041;-56
2023/07/19 09:58:23;;;;;;;0.30;0.30;;;18.10;99.90;;;;;;5050745;28;20044;-56
2023/07/19 10:00:51;;;;;;;0.45;0.28;;;18.20;99.90;;;;;;5047027;28;20045;-56
2023/07/19 10:03:20;;;;;;;2.67;0.45;;;18.40;99.90;;;;;;5050638;28;20045;-59
2023/07/19 10:05:57;;;;;;;1.60;0.40;;;18.50;99.90;;;;;;5050707;28;20049;-60
2023/07/19 10:08:25;;;;;;;4.68;0.38;;;18.50;99.90;;;;;;5047464;28;20094;-57
2023/07/19 10:10:59;;;;;;;2.10;0.40;;;18.50;99.90;;;;;;5049693;28;20048;-58
2023/07/19 10:13:31;;;;;;;1.33;0.40;;;18.50;99.90;;;;;;5048077;28;20505;-58
2023/07/19 10:15:59;;;;;;;1.20;0.50;;;18.60;99.90;;;;;;5048889;28;20068;-57
2023/07/19 10:18:29;;;;;;;1.13;0.50;;;18.80;99.90;;;;;;5049231;28;20032;-57
2023/07/19 10:21:02;;;;;;;3.80;0.30;;;19.00;99.90;;;;;;5045324;28;20072;-57
2023/07/19 10:23:30;;;;;;;2.95;0.50;;;19.30;99.90;;;;;;5045575;28;20060;-57
2023/07/19 10:26:06;;;;;;;1.70;0.47;;;19.60;99.90;;;;;;5038045;28;20524;-57
2023/07/19 10:28:34;;;;;;;2.22;0.30;;;19.80;99.90;;;;;;5047931;28;20397;-57
2023/07/19 10:31:03;;;;;;;4.40;0.47;;;19.70;99.90;;;;;;5045122;28;20049;-57
2023/07/19 10:33:54;;;;;;;0.30;0.23;;;19.60;99.90;;;;;;5048687;28;20049;-57
2023/07/19 10:36:23;;;;;;;6.05;0.60;;;19.50;99.90;;;;;;5050985;28;20394;-56
2023/07/19 10:38:51;;;;;;;4.30;0.80;;;19.40;99.90;;;;;;5048651;28;20622;-57
2023/07/19 10:41:20;;;;;;;0.90;0.57;;;19.40;99.90;;;;;;5047019;28;20484;-56
2023/07/19 10:43:48;;;;;;;2.28;0.50;;;19.30;99.90;;;;;;5034675;28;20060;-56
2023/07/19 10:46:21;;;;;;;3.25;0.73;;;19.20;99.90;;;;;;5043029;28;20072;-58
2023/07/19 10:48:53;;;;;;;1.38;0.40;;;19.20;99.90;;;;;;5039210;28;20057;-57
2023/07/19 10:51:24;;;;;;;3.53;0.50;;;19.10;99.90;;;;;;5049427;28;20051;-57
2023/07/19 10:53:56;;;;;;;7.22;1.02;;;19.10;99.90;;;;;;5049859;28;20036;-57
2023/07/19 10:56:27;;;;;;;5.93;0.90;;;19.10;99.90;;;;;;5049038;28;20530;-59
2023/07/19 10:58:58;;;;;;;2.23;0.50;;;19.10;99.90;;;;;;5041172;28;20041;-57
2023/07/19 11:01:29;;;;;;;1.92;0.80;;;19.20;99.90;;;;;;5048094;28;20052;-59
2023/07/19 11:04:02;;;;;;;1.88;0.50;;;19.20;99.90;;;;;;5051532;28;20515;-59
2023/07/19 11:06:32;;;;;;;1.50;0.50;;;19.20;99.90;;;;;;5049324;28;20060;-59
2023/07/19 11:09:09;;;;;;;6.85;2.35;;;19.10;99.90;;;;;;5050175;28;20052;-59
2023/07/19 11:11:38;;;;;;;8.77;2.63;;;19.20;99.90;;;;;;5048503;28;20044;-57
2023/07/19 11:14:06;;;;;;;4.05;1.15;;;19.20;99.90;;;;;;5049647;28;20052;-59
2023/07/19 11:16:34;;;;;;;2.70;0.65;;;19.10;99.90;;;;;;5048630;28;20400;-58
2023/07/19 11:19:03;;;;;;;3.85;0.50;;;19.20;99.90;;;;;;5047138;28;20040;-57
2023/07/19 11:21:31;;;;;;;1.15;0.68;;;19.40;99.90;;;;;;5049111;28;20040;-58
2023/07/19 11:23:58;;;;;;;3.13;0.55;;;19.60;99.90;;;;;;5052469;28;20052;-59
2023/07/19 11:26:26;;;;;;;2.95;0.63;;;19.90;99.90;;;;;;5047233;28;20044;-59
2023/07/19 11:28:58;;;;;;;1.15;0.50;;;20.10;99.90;;;;;;5051932;28;20037;-59
2023/07/19 11:31:38;;;;;;;4.90;0.95;;;20.20;99.90;;;;;;5045770;28;20049;-58
2023/07/19 11:34:10;;;;;;;1.25;0.50;;;20.30;99.90;;;;;;5044815;28;20495;-58
2023/07/19 11:36:45;;;;;;;2.78;0.90;;;20.40;99.90;;;;;;5049120;28;20392;-58
2023/07/19 11:39:18;;;;;;;2.17;0.50;;;20.40;99.90;;;;;;5051872;28;20044;-58
2023/07/19 11:41:46;;;;;;;2.95;0.57;;;20.30;99.90;;;;;;5049457;28;20064;-59
2023/07/19 11:44:22;;;;;;;1.40;0.40;;;20.20;99.90;;;;;;5049257;28;20037;-58
2023/07/19 11:46:52;;;;;;;1.52;0.70;;;20.30;99.90;;;;;;5046875;28;20045;-59
2023/07/19 11:49:20;;;;;;;0.88;0.45;;;20.30;99.90;;;;;;5048061;28;20041;-59
2023/07/19 11:51:47;;;;;;;2.08;0.60;;;20.50;99.90;;;;;;5047182;28;20048;-58
2023/07/19 11:54:16;;;;;;;0.85;0.40;;;20.70;99.90;;;;;;5049132;28;20060;-58
2023/07/19 11:56:43;;;;;;;0.82;0.40;;;21.00;99.90;;;;;;5046038;28;20056;-58
2023/07/19 11:59:11;;;;;;;2.33;0.60;;;21.40;99.90;;;;;;5048081;28;20045;-58
2023/07/19 12:01:39;;;;;;;0.75;0.43;;;21.60;99.90;;;;;;5048990;28;20420;-58
2023/07/19 12:04:07;;;;;;;3.33;0.68;;;21.70;99.90;;;;;;5044604;28;20473;-55
2023/07/19 12:06:35;;;;;;;1.60;0.55;;;21.60;99.90;;;;;;5048381;28;20053;-59
2023/07/19 12:09:03;;;;;;;0.80;0.35;;;21.50;99.90;;;;;;5049125;28;20044;-58
2023/07/19 12:11:31;;;;;;;1.77;0.60;;;21.70;99.90;;;;;;5048519;28;20056;-59
2023/07/19 12:13:59;;;;;;;0.45;0.25;;;22.00;99.90;;;;;;5046262;28;20393;-60
2023/07/19 12:16:26;;;;;;;0.70;0.30;;;22.30;99.90;;;;;;5048036;28;20060;-57
2023/07/19 12:18:54;;;;;;;1.15;0.47;;;22.80;99.90;;;;;;5048024;28;20041;-56
2023/07/19 12:21:23;;;;;;;1.55;0.50;;;23.20;99.90;;;;;;5049078;28;20037;-57
2023/07/19 12:23:52;;;;;;;1.95;0.47;;;23.40;99.90;;;;;;5048807;28;20057;-57
2023/07/19 12:26:22;;;;;;;2.30;0.55;;;23.60;99.90;;;;;;5048959;28;20037;-57
2023/07/19 12:28:53;;;;;;;0.60;0.30;;;23.80;99.90;;;;;;5051269;28;20045;-57
2023/07/19 12:31:21;;;;;;;1.05;0.45;;;24.10;99.90;;;;;;5048841;28;20048;-57
2023/07/19 12:33:49;;;;;;;3.25;0.52;;;24.20;99.90;;;;;;5046417;28;20052;-57
2023/07/19 12:36:17;;;;;;;3.05;0.50;;;24.20;99.90;;;;;;5052133;28;20045;-58
2023/07/19 12:38:47;;;;;;;0.93;0.45;;;24.30;99.90;;;;;;5052707;28;20041;-61
2023/07/19 12:41:16;;;;;;;1.77;1.05;;;24.60;99.90;;;;;;5051328;28;20052;-61
2023/07/19 12:43:44;;;;;;;1.20;0.50;;;24.60;99.90;;;;;;5052680;28;20391;-62
2023/07/19 12:46:11;;;;;;;0.85;0.47;;;24.50;99.90;;;;;;5051412;28;20052;-61
2023/07/19 12:48:40;;;;;;;2.38;0.60;;;24.70;99.90;;;;;;5049392;28;20065;-61